Startpagina
METAR-TAF:

METAR-TAF

Vliegvelden :

Wallis, Frankrijk

breedte: 13-14S, lengte: 176-10W, hoogte: 23 m

METAR: ontbreekt

Tijdstip: 09:56 (21:56 UTC)

Verwachting

Dit bericht is 4 uur en het 56 minuten geleden gemaakt, om 17:00 UTC
Verwachting geldig van 16 om 18 UTC tot 17 om 18 UTC
Wind 8 kt uit het oostzuidoosten
Zicht 10 km of meer
Verspreide wolken op 1800 ft
Gebroken wolken op 5000 ft
Kans 30% :
Tijdelijke
van 16 om 18 UTC tot 16 om 24 UTC
Weinig wolken op 2000 ft, Stapelwolken.
regenbuien
Kans 40% :
Tijdelijke
van 17 om 15 UTC tot 17 om 18 UTC
Zicht: 4000 m
Gebroken wolken op 1400 ft
Weinig wolken op 1800 ft, Stapelwolken.
regenbuien

TAF: NLWW 161700Z 1618/1718 11008KT 9999 SCT018 BKN050 PROB30 TEMPO 1618/1624 SHRA FEW020TCU PROB40 TEMPO 1715/1718 4000 SHRA BKN014 FEW018TCU

Waarnemingen en weersverwachtingen van meer dan 4000 vliegvelden (METAR en TAF).

De beschikbare stations zijn de gele en rode punten op de kaart.

Ga met uw muis naar het station om de naam te zien.

Klik dan om waarnemingen en weersverwachtingen te zien.

kaart wijzigen: klik op de groene knoppen met een zwart kruis om in te zoomen, op de groene knop met een streepje om uit te zoomen of op de groene pijlen voor aangrenzende kaarten.


METAR-TAF: